Time;durP1;ratioP1;P1;durP2;ratioP2;P2;SDS_P1;SDS_P2;PMS_P1;PMS_P2;Temp;Humidity;BMP_temperature;BMP_pressure;BME280_temperature;BME280_humidity;BME280_pressure;Samples;Min_cycle;Max_cycle;Signal;HPM_P1;HPM_P2
2023/06/15 00:01:52;;;;;;;11.15;4.90;;;;;;;17.78;70.32;101811.50;5064786;28;20029;-75
2023/06/15 00:04:18;;;;;;;9.77;4.18;;;;;;;17.90;70.09;101801.59;5046440;28;20041;-76
2023/06/15 00:06:44;;;;;;;7.65;5.00;;;;;;;17.84;70.67;101812.88;5062414;28;20036;-78
2023/06/15 00:09:10;;;;;;;4.75;3.97;;;;;;;17.86;70.59;101806.34;5063231;28;20131;-74
2023/06/15 00:11:36;;;;;;;6.45;4.93;;;;;;;17.76;71.06;101812.59;5051798;28;20040;-77
2023/06/15 00:14:01;;;;;;;6.43;4.78;;;;;;;17.78;71.11;101814.22;5062807;28;20039;-74
2023/06/15 00:16:31;;;;;;;7.97;4.68;;;;;;;17.73;70.41;101811.00;5061564;28;20719;-77
2023/06/15 00:18:57;;;;;;;7.65;5.50;;;;;;;17.67;71.49;101800.69;5058989;28;20045;-76
2023/06/15 00:21:24;;;;;;;8.15;5.55;;;;;;;17.63;71.42;101803.72;5062055;28;20671;-76
2023/06/15 00:23:50;;;;;;;8.43;6.07;;;;;;;17.48;72.93;101808.47;5042746;28;20119;-77
2023/06/15 00:26:15;;;;;;;11.63;5.90;;;;;;;17.47;72.82;101802.22;5065909;28;20040;-78
2023/06/15 00:28:45;;;;;;;9.32;5.55;;;;;;;17.48;73.37;101801.25;5070004;28;20025;-77
2023/06/15 00:31:10;;;;;;;8.85;5.90;;;;;;;17.42;74.29;101815.19;5061185;28;20059;-77
2023/06/15 00:33:36;;;;;;;7.47;5.88;;;;;;;17.46;73.86;101811.25;5075235;28;20483;-75
2023/06/15 00:36:05;;;;;;;8.60;5.70;;;;;;;17.49;73.54;101802.09;5066737;28;20044;-74
2023/06/15 00:38:32;;;;;;;11.93;6.57;;;;;;;17.38;74.60;101804.75;5062847;28;20102;-75
2023/06/15 00:40:58;;;;;;;8.63;6.80;;;;;;;17.29;75.69;101806.31;5072683;28;20410;-74
2023/06/15 00:43:24;;;;;;;7.45;6.65;;;;;;;17.38;75.09;101802.06;5070408;28;20036;-74
2023/06/15 00:45:51;;;;;;;7.45;6.00;;;;;;;17.33;75.90;101805.97;5068779;28;20088;-76
2023/06/15 00:48:16;;;;;;;8.75;6.40;;;;;;;17.44;74.98;101805.16;5051679;28;20592;-78
2023/06/15 00:50:42;;;;;;;9.20;6.43;;;;;;;17.47;74.66;101802.22;5056509;28;20603;-75
2023/06/15 00:53:11;;;;;;;12.23;6.68;;;;;;;17.26;76.68;101812.78;5056078;28;20032;-74
2023/06/15 00:55:41;;;;;;;10.20;6.68;;;;;;;17.34;76.48;101798.75;5066440;28;20505;-75
2023/06/15 00:58:07;;;;;;;9.95;6.60;;;;;;;17.43;75.70;101808.81;5065710;28;20324;-78
2023/06/15 01:00:35;;;;;;;9.65;7.57;;;;;;;17.44;75.79;101810.53;5061772;28;21042;-78
2023/06/15 01:03:04;;;;;;;7.43;6.30;;;;;;;17.48;76.00;101811.16;5040744;28;20606;-78
2023/06/15 01:05:30;;;;;;;10.23;7.07;;;;;;;17.48;75.99;101817.41;5055185;28;20143;-77
2023/06/15 01:08:01;;;;;;;12.20;6.60;;;;;;;17.42;77.13;101806.22;5063642;28;20032;-75
2023/06/15 01:10:31;;;;;;;7.43;6.00;;;;;;;17.42;77.58;101819.69;5057922;28;20043;-77
2023/06/15 01:12:59;;;;;;;10.70;6.07;;;;;;;17.38;77.95;101821.81;5046780;28;20075;-78
2023/06/15 01:15:24;;;;;;;9.15;6.45;;;;;;;17.41;77.32;101813.47;5051219;28;20049;-80
2023/06/15 01:17:54;;;;;;;11.55;6.85;;;;;;;17.22;79.11;101823.91;5056545;28;20033;-77
2023/06/15 01:20:26;;;;;;;11.18;7.60;;;;;;;17.25;79.04;101821.00;5035112;28;20048;-80
2023/06/15 01:23:21;;;;;;;19.38;7.78;;;;;;;17.23;79.14;101818.44;5055962;28;20064;-76
2023/06/15 01:25:48;;;;;;;11.45;7.25;;;;;;;17.14;80.39;101812.88;5049259;28;20069;-76
2023/06/15 01:28:20;;;;;;;7.82;6.68;;;;;;;17.14;80.44;101824.50;5033194;28;20049;-77
2023/06/15 01:30:51;;;;;;;11.15;7.45;;;;;;;17.16;80.53;101819.00;5020158;28;20040;-77
2023/06/15 01:33:17;;;;;;;8.60;6.75;;;;;;;17.08;81.50;101817.75;5065467;28;20033;-76
2023/06/15 01:35:43;;;;;;;7.65;6.80;;;;;;;17.05;80.74;101822.50;5073766;28;20056;-75
2023/06/15 01:38:10;;;;;;;10.50;6.82;;;;;;;16.59;83.58;101825.88;5063811;28;20044;-73
2023/06/15 01:40:44;;;;;;;12.35;7.05;;;;;;;16.63;84.95;101823.84;5031566;28;20048;-77
2023/06/15 01:43:13;;;;;;;7.90;6.82;;;;;;;16.63;85.74;101823.84;5072780;28;20032;-74
2023/06/15 01:45:44;;;;;;;10.40;7.13;;;;;;;16.61;86.11;101823.06;5064498;28;20029;-75
2023/06/15 01:48:13;;;;;;;10.07;7.70;;;;;;;16.65;85.66;101820.03;5066420;28;20048;-81
2023/06/15 01:50:43;;;;;;;12.00;7.72;;;;;;;16.61;86.16;101823.06;5050008;28;20037;-74
2023/06/15 01:53:10;;;;;;;9.00;7.30;;;;;;;16.61;86.26;101823.91;5072078;28;20028;-74
2023/06/15 01:55:36;;;;;;;12.10;8.02;;;;;;;16.60;86.17;101824.91;5069018;28;20671;-78
2023/06/15 01:58:02;;;;;;;14.25;8.23;;;;;;;16.56;87.16;101818.88;5066629;28;20074;-76
2023/06/15 02:00:28;;;;;;;11.88;7.13;;;;;;;16.48;88.21;101826.66;5059665;28;20040;-76
2023/06/15 02:02:53;;;;;;;10.02;7.82;;;;;;;16.44;88.60;101819.78;5060469;28;20136;-75
2023/06/15 02:05:19;;;;;;;8.15;7.10;;;;;;;16.34;89.19;101818.72;5039335;28;20043;-73
2023/06/15 02:07:47;;;;;;;11.88;6.78;;;;;;;16.29;89.69;101818.19;5054594;28;20089;-75
2023/06/15 02:10:13;;;;;;;9.90;7.28;;;;;;;16.35;88.79;101819.56;5039329;28;20406;-76
2023/06/15 02:12:41;;;;;;;12.50;7.53;;;;;;;16.30;89.30;101822.59;5058211;28;20044;-75
2023/06/15 02:15:16;;;;;;;10.43;7.85;;;;;;;16.21;90.52;101816.03;5040607;28;20115;-76
2023/06/15 02:17:41;;;;;;;16.67;7.40;;;;;;;16.14;92.04;101821.97;5057239;28;20284;-76
2023/06/15 02:20:11;;;;;;;11.40;8.13;;;;;;;16.12;92.99;101816.72;5058711;28;20037;-75
2023/06/15 02:22:37;;;;;;;13.18;8.30;;;;;;;16.07;93.64;101821.56;5062471;28;20129;-76
2023/06/15 02:25:04;;;;;;;12.07;8.10;;;;;;;16.08;92.92;101822.41;5067240;28;20639;-76
2023/06/15 02:27:30;;;;;;;15.00;9.60;;;;;;;16.08;93.78;101817.91;5071109;28;20613;-76
2023/06/15 02:29:55;;;;;;;13.00;9.10;;;;;;;16.01;94.36;101822.88;5069698;28;20382;-76
2023/06/15 02:32:36;;;;;;;17.73;10.32;;;;;;;15.96;96.42;101824.97;5065371;28;20063;-77
2023/06/15 02:35:05;;;;;;;15.00;9.55;;;;;;;15.89;97.29;101826.41;5067025;28;20029;-76
2023/06/15 02:37:30;;;;;;;14.75;9.27;;;;;;;15.86;98.44;101831.97;5069258;28;20049;-77
2023/06/15 02:39:56;;;;;;;15.73;9.88;;;;;;;15.97;98.22;101834.81;5075337;28;20306;-75
2023/06/15 02:42:21;;;;;;;18.88;10.75;;;;;;;15.99;98.30;101823.94;5078322;28;20935;-77
2023/06/15 02:44:47;;;;;;;12.00;9.20;;;;;;;15.94;98.80;101821.56;5077061;28;20055;-75
2023/06/15 02:47:13;;;;;;;12.00;9.15;;;;;;;15.92;97.84;101826.19;5050366;28;21378;-75
2023/06/15 02:49:40;;;;;;;12.57;9.88;;;;;;;15.89;99.31;101826.41;5074146;28;20067;-73
2023/06/15 02:52:07;;;;;;;12.68;9.55;;;;;;;15.82;100.00;101825.13;5078021;28;20029;-74
2023/06/15 02:54:34;;;;;;;12.18;9.45;;;;;;;15.77;100.00;101819.19;5087221;28;20100;-75
2023/06/15 02:57:01;;;;;;;15.85;9.02;;;;;;;15.67;100.00;101818.97;5084920;28;20024;-76
2023/06/15 02:59:30;;;;;;;12.75;9.80;;;;;;;15.58;100.00;101824.94;5059159;28;20055;-75
2023/06/15 03:02:07;;;;;;;13.43;9.57;;;;;;;15.72;100.00;101819.50;5052202;28;20130;-73
2023/06/15 03:04:44;;;;;;;14.48;10.57;;;;;;;15.74;100.00;101824.78;5068069;28;20045;-75
2023/06/15 03:07:13;;;;;;;15.23;10.10;;;;;;;15.72;100.00;101824.03;5068228;28;20017;-74
2023/06/15 03:09:58;;;;;;;13.02;9.35;;;;;;;15.79;100.00;101826.19;5080090;28;20040;-74
2023/06/15 03:12:24;;;;;;;13.43;9.15;;;;;;;15.80;100.00;101824.34;5069210;28;20095;-76
2023/06/15 03:14:52;;;;;;;13.52;9.93;;;;;;;15.79;100.00;101825.31;5068026;28;20040;-75
2023/06/15 03:17:19;;;;;;;10.60;9.25;;;;;;;15.80;100.00;101827.88;5069323;28;20118;-75
2023/06/15 03:19:48;;;;;;;12.93;9.77;;;;;;;15.91;100.00;101826.28;5074779;28;20040;-77
2023/06/15 03:22:15;;;;;;;13.45;9.82;;;;;;;15.91;100.00;101823.59;5056718;28;20057;-73
2023/06/15 03:24:42;;;;;;;13.18;9.93;;;;;;;15.92;100.00;101830.72;5060562;28;20105;-75
2023/06/15 03:27:11;;;;;;;15.07;9.68;;;;;;;16.05;100.00;101828.88;5050263;28;20476;-76
2023/06/15 03:29:39;;;;;;;13.82;10.00;;;;;;;15.99;100.00;101827.47;5068466;28;20032;-74
2023/06/15 03:32:07;;;;;;;15.75;9.93;;;;;;;16.11;100.00;101830.25;5044472;28;20045;-75
2023/06/15 03:34:33;;;;;;;13.45;10.88;;;;;;;16.28;100.00;101827.25;5067627;28;21003;-75
2023/06/15 03:36:59;;;;;;;18.40;10.02;;;;;;;16.45;100.00;101829.56;5051004;28;20655;-77
2023/06/15 03:39:24;;;;;;;13.55;10.18;;;;;;;16.64;100.00;101831.78;5054344;28;20419;-77
2023/06/15 03:41:50;;;;;;;12.73;10.07;;;;;;;16.98;98.65;101829.34;5078887;28;20043;-77
2023/06/15 03:44:16;;;;;;;14.75;10.35;;;;;;;17.33;95.27;101827.53;5055935;28;20572;-77
2023/06/15 03:46:42;;;;;;;19.08;10.10;;;;;;;17.35;92.79;101822.03;5044673;28;20918;-75
2023/06/15 03:49:10;;;;;;;14.77;10.32;;;;;;;17.74;92.12;101828.91;5071744;28;20040;-76
2023/06/15 03:51:42;;;;;;;16.70;10.02;;;;;;;17.97;88.74;101831.63;5055110;28;20120;-75
2023/06/15 03:54:08;;;;;;;12.38;9.80;;;;;;;18.27;86.50;101834.63;5076125;28;20082;-75
2023/06/15 03:56:36;;;;;;;12.95;9.80;;;;;;;18.60;83.88;101836.44;5039125;28;20181;-77
2023/06/15 03:59:01;;;;;;;16.83;10.48;;;;;;;19.00;81.89;101827.78;5039925;28;20084;-74
2023/06/15 04:01:27;;;;;;;11.70;9.15;;;;;;;19.29;78.73;101827.19;5037482;28;20567;-76
2023/06/15 04:03:54;;;;;;;17.70;9.63;;;;;;;19.55;75.18;101824.97;5052426;28;20029;-77
2023/06/15 04:06:21;;;;;;;12.40;10.18;;;;;;;19.81;73.92;101833.56;5042857;28;20132;-75
2023/06/15 04:08:48;;;;;;;15.38;10.00;;;;;;;20.18;73.06;101823.06;5068826;28;21003;-75
2023/06/15 04:11:15;;;;;;;16.08;10.80;;;;;;;20.41;72.11;101823.75;5065864;28;20134;-74
2023/06/15 04:13:42;;;;;;;20.42;10.70;;;;;;;20.68;71.40;101828.56;5029409;28;20868;-75
2023/06/15 04:16:07;;;;;;;12.45;10.10;;;;;;;21.01;70.38;101823.78;5047722;28;20083;-75
2023/06/15 04:18:36;;;;;;;12.65;10.52;;;;;;;21.48;68.33;101818.53;5044588;28;20583;-76
2023/06/15 04:21:04;;;;;;;14.55;11.23;;;;;;;21.55;67.56;101819.69;5056327;28;20109;-77
2023/06/15 04:23:30;;;;;;;15.15;10.43;;;;;;;21.91;66.46;101823.44;5044845;28;20057;-75
2023/06/15 04:25:58;;;;;;;16.58;9.30;;;;;;;22.08;65.57;101825.38;5040251;28;20039;-73
2023/06/15 04:28:24;;;;;;;14.07;9.80;;;;;;;21.19;68.44;101827.50;5049946;28;20033;-77
2023/06/15 04:31:06;;;;;;;11.30;9.43;;;;;;;21.67;67.74;101834.78;5062339;28;20486;-77
2023/06/15 04:33:33;;;;;;;25.90;11.05;;;;;;;21.45;68.71;101828.69;5049588;28;20028;-77
2023/06/15 04:36:00;;;;;;;14.82;9.75;;;;;;;21.74;67.58;101838.66;5047244;28;20037;-75
2023/06/15 04:38:26;;;;;;;12.85;9.20;;;;;;;22.63;66.22;101830.91;5048965;28;20093;-77
2023/06/15 04:40:52;;;;;;;12.70;9.15;;;;;;;23.44;62.25;101828.19;5028633;28;20060;-77
2023/06/15 04:43:18;;;;;;;13.30;9.65;;;;;;;23.50;60.76;101830.31;5047687;28;20453;-76
2023/06/15 04:45:46;;;;;;;11.38;8.60;;;;;;;23.66;60.55;101831.47;5062979;28;20037;-76
2023/06/15 04:48:19;;;;;;;11.85;8.82;;;;;;;23.20;61.74;101839.72;5060157;28;20032;-78
2023/06/15 04:50:48;;;;;;;15.77;9.15;;;;;;;23.36;60.38;101841.75;5068652;28;20044;-75
2023/06/15 04:53:17;;;;;;;14.30;8.82;;;;;;;23.33;61.62;101842.03;5068113;28;20060;-75
2023/06/15 04:55:43;;;;;;;11.32;8.15;;;;;;;23.73;59.94;101837.97;5056702;28;20056;-75
2023/06/15 04:58:12;;;;;;;10.18;8.40;;;;;;;24.15;58.58;101839.97;5057749;28;20084;-75
2023/06/15 05:00:41;;;;;;;13.30;8.27;;;;;;;24.37;58.41;101844.03;5057055;28;20037;-75
2023/06/15 05:03:07;;;;;;;16.80;8.20;;;;;;;24.38;57.50;101848.47;5049039;28;20036;-78
2023/06/15 05:05:32;;;;;;;13.65;8.18;;;;;;;23.17;60.19;101845.47;5054386;28;20051;-82
2023/06/15 05:07:58;;;;;;;12.38;7.90;;;;;;;23.30;60.63;101850.53;5052169;28;20067;-78
2023/06/15 05:10:24;;;;;;;12.30;8.80;;;;;;;24.52;57.51;101848.72;5045171;28;20025;-78
2023/06/15 05:12:51;;;;;;;12.40;7.78;;;;;;;25.52;56.83;101844.19;5065947;28;20033;-75
2023/06/15 05:15:17;;;;;;;11.23;8.32;;;;;;;26.13;53.40;101849.25;5046961;28;20848;-80
2023/06/15 05:17:43;;;;;;;14.68;8.52;;;;;;;24.89;56.63;101858.38;5058851;28;20068;-79
2023/06/15 05:20:11;;;;;;;17.95;8.60;;;;;;;24.37;58.41;101855.78;5066695;28;20040;-78
2023/06/15 05:22:36;;;;;;;12.65;8.35;;;;;;;25.93;54.78;101859.72;5033693;28;20041;-76
2023/06/15 05:25:03;;;;;;;15.65;8.45;;;;;;;25.79;54.15;101859.38;5033522;28;20036;-78
2023/06/15 05:27:28;;;;;;;10.80;8.18;;;;;;;26.60;51.63;101854.75;5069573;28;20035;-79
2023/06/15 05:29:54;;;;;;;13.65;8.93;;;;;;;24.85;54.49;101861.59;5035547;28;20024;-78
2023/06/15 05:32:20;;;;;;;22.95;8.50;;;;;;;24.98;55.60;101865.56;5052160;28;20056;-77
2023/06/15 05:34:46;;;;;;;18.15;9.20;;;;;;;24.28;58.17;101867.63;5051532;28;20044;-75
2023/06/15 05:37:11;;;;;;;14.70;8.30;;;;;;;23.80;60.61;101860.88;5047283;28;20029;-77
2023/06/15 05:39:40;;;;;;;14.55;8.95;;;;;;;24.68;58.88;101864.28;5048698;28;20044;-78
2023/06/15 05:42:16;;;;;;;13.98;8.60;;;;;;;24.28;59.10;101864.91;5071929;28;20025;-75
2023/06/15 05:44:45;;;;;;;12.63;7.65;;;;;;;24.96;56.68;101859.44;5052910;28;20041;-80
2023/06/15 05:47:11;;;;;;;15.88;8.98;;;;;;;24.86;57.49;101857.88;5041934;28;20096;-77
2023/06/15 05:49:36;;;;;;;12.18;7.85;;;;;;;25.09;55.59;101864.44;5073071;28;20044;-79
2023/06/15 05:52:02;;;;;;;15.15;8.75;;;;;;;24.82;56.48;101864.69;5062744;28;20049;-81
2023/06/15 05:54:31;;;;;;;13.50;8.85;;;;;;;24.35;58.55;101865.09;5037181;28;20044;-78
2023/06/15 05:56:56;;;;;;;12.30;8.48;;;;;;;24.08;58.72;101864.28;5053264;28;20032;-76
2023/06/15 05:59:22;;;;;;;12.73;8.48;;;;;;;23.89;59.29;101859.88;5053473;28;20059;-79
2023/06/15 06:01:47;;;;;;;13.82;9.55;;;;;;;24.25;58.27;101863.38;5067247;28;20029;-78
2023/06/15 06:04:13;;;;;;;13.40;9.15;;;;;;;24.33;58.34;101865.28;5071772;28;20037;-81
2023/06/15 06:06:42;;;;;;;11.88;8.50;;;;;;;23.75;58.74;101868.66;5053724;28;20043;-75
2023/06/15 06:09:12;;;;;;;12.90;9.18;;;;;;;24.11;58.59;101865.84;5070826;28;20983;-76
2023/06/15 06:11:41;;;;;;;15.43;9.35;;;;;;;23.95;60.51;101875.63;5067151;28;20040;-77
2023/06/15 06:14:07;;;;;;;13.98;8.65;;;;;;;24.29;57.45;101875.66;5053632;28;20037;-80
2023/06/15 06:16:32;;;;;;;17.67;9.25;;;;;;;23.79;60.49;101875.47;5069099;28;20041;-78
2023/06/15 06:18:59;;;;;;;13.00;9.18;;;;;;;23.97;60.38;101872.72;5063261;28;20107;-79
2023/06/15 06:21:25;;;;;;;16.55;9.02;;;;;;;25.11;58.39;101867.00;5053899;28;20032;-77
2023/06/15 06:23:52;;;;;;;11.27;8.45;;;;;;;24.97;57.78;101869.31;5066302;28;20037;-78
2023/06/15 06:26:17;;;;;;;13.95;9.00;;;;;;;25.99;56.53;101862.59;5062481;28;20082;-78
2023/06/15 06:28:43;;;;;;;16.13;9.95;;;;;;;25.79;55.72;101861.25;5048339;28;20036;-76
2023/06/15 06:31:09;;;;;;;16.05;9.10;;;;;;;25.29;53.36;101864.97;5052116;28;20489;-78
2023/06/15 06:33:37;;;;;;;13.43;8.60;;;;;;;25.80;52.10;101862.97;5030748;28;20518;-78
2023/06/15 06:36:05;;;;;;;10.90;9.00;;;;;;;25.52;52.65;101866.03;5028740;28;20041;-77
2023/06/15 06:38:30;;;;;;;13.27;8.75;;;;;;;25.35;53.88;101863.44;5064678;28;20045;-78
2023/06/15 06:40:56;;;;;;;13.18;9.68;;;;;;;25.46;55.68;101860.41;5064426;28;20045;-78
2023/06/15 06:43:22;;;;;;;14.23;9.90;;;;;;;25.16;56.71;101870.94;5064868;28;20070;-76
2023/06/15 06:45:47;;;;;;;12.00;9.18;;;;;;;25.15;56.77;101877.44;5063964;28;20090;-75
2023/06/15 06:48:13;;;;;;;15.48;9.00;;;;;;;25.04;53.96;101875.81;5069046;28;20033;-79
2023/06/15 06:50:41;;;;;;;14.85;9.13;;;;;;;25.55;56.84;101871.16;5057212;28;20048;-82
2023/06/15 06:53:07;;;;;;;12.20;8.73;;;;;;;25.47;56.04;101871.16;5071407;28;20024;-79
2023/06/15 06:55:32;;;;;;;18.23;9.85;;;;;;;25.93;54.22;101865.19;5069449;28;20037;-75
2023/06/15 06:58:00;;;;;;;16.00;9.77;;;;;;;25.66;55.07;101871.84;5066685;28;20031;-77
2023/06/15 07:00:27;;;;;;;11.82;9.02;;;;;;;24.94;57.60;101871.53;5071390;28;20064;-78
2023/06/15 07:02:52;;;;;;;11.65;9.15;;;;;;;25.23;54.88;101868.38;5072093;28;20830;-78
2023/06/15 07:05:18;;;;;;;11.90;9.30;;;;;;;24.94;57.29;101869.66;5071577;28;21037;-79
2023/06/15 07:07:44;;;;;;;15.07;10.15;;;;;;;25.54;56.04;101877.63;5076682;28;21006;-79
2023/06/15 07:10:11;;;;;;;15.60;9.70;;;;;;;25.57;53.44;101874.56;5073376;28;20068;-75
2023/06/15 07:12:36;;;;;;;16.02;9.88;;;;;;;25.33;55.40;101877.28;5078198;28;20118;-75
2023/06/15 07:15:02;;;;;;;18.92;9.95;;;;;;;26.16;56.50;101876.25;5074040;28;20043;-80
2023/06/15 07:17:28;;;;;;;11.93;9.43;;;;;;;25.63;57.57;101872.19;5074917;28;20823;-81
2023/06/15 07:19:54;;;;;;;11.38;8.88;;;;;;;25.45;56.29;101877.78;5061324;28;20045;-80
2023/06/15 07:22:20;;;;;;;13.95;9.23;;;;;;;25.57;54.27;101874.56;5059591;28;20113;-78
2023/06/15 07:24:46;;;;;;;15.18;9.10;;;;;;;25.30;54.40;101883.06;5079096;28;20493;-79
2023/06/15 07:27:12;;;;;;;11.75;9.30;;;;;;;25.41;54.96;101879.19;5074377;28;20044;-76
2023/06/15 07:29:37;;;;;;;12.90;9.38;;;;;;;25.91;57.46;101881.78;5079518;28;20035;-81
2023/06/15 07:32:07;;;;;;;13.40;9.18;;;;;;;25.48;54.71;101878.31;5059818;28;20041;-78
2023/06/15 07:34:32;;;;;;;13.70;8.63;;;;;;;25.85;54.63;101876.97;5075608;28;20194;-75
2023/06/15 07:36:58;;;;;;;13.30;9.50;;;;;;;25.35;56.34;101877.09;5075115;28;20157;-74
2023/06/15 07:39:23;;;;;;;15.05;9.45;;;;;;;25.73;54.20;101879.16;5055850;28;20044;-78
2023/06/15 07:41:49;;;;;;;14.38;9.55;;;;;;;25.44;56.83;101876.94;5087073;28;20040;-75
2023/06/15 07:44:15;;;;;;;12.77;8.70;;;;;;;26.19;52.58;101878.63;5068154;28;20037;-75
2023/06/15 07:46:41;;;;;;;15.13;9.18;;;;;;;26.19;53.96;101875.91;5084949;28;20056;-77
2023/06/15 07:49:07;;;;;;;13.57;9.35;;;;;;;26.25;53.19;101878.78;5079137;28;20122;-75
2023/06/15 07:51:34;;;;;;;11.18;9.65;;;;;;;26.29;55.39;101880.13;5076755;28;20120;-79
2023/06/15 07:54:00;;;;;;;12.63;9.68;;;;;;;26.15;52.76;101877.25;5064852;28;20037;-75
2023/06/15 07:56:26;;;;;;;18.15;10.05;;;;;;;26.13;55.31;101876.59;5051772;28;20033;-77
2023/06/15 07:58:52;;;;;;;14.85;9.27;;;;;;;26.30;55.55;101879.09;5079677;28;20029;-75
2023/06/15 08:01:17;;;;;;;12.68;8.32;;;;;;;25.96;52.96;101884.84;5075526;28;20071;-78
2023/06/15 08:03:43;;;;;;;14.82;8.63;;;;;;;26.79;51.98;101873.47;5077521;28;20033;-77
2023/06/15 08:06:11;;;;;;;13.20;9.70;;;;;;;26.18;55.47;101877.78;5078846;28;20066;-74
2023/06/15 08:08:37;;;;;;;15.30;9.30;;;;;;;26.83;56.82;101884.94;5051251;28;20088;-75
2023/06/15 08:11:05;;;;;;;16.13;8.88;;;;;;;27.46;50.52;101870.19;5067487;28;20040;-78
2023/06/15 08:13:33;;;;;;;11.65;8.77;;;;;;;26.86;53.99;101873.66;5063097;28;21373;-78
2023/06/15 08:15:59;;;;;;;11.90;7.90;;;;;;;26.90;49.80;101874.13;5070604;28;20065;-75
2023/06/15 08:18:28;;;;;;;12.43;8.38;;;;;;;27.11;50.29;101874.38;5069137;28;21075;-75
2023/06/15 08:20:54;;;;;;;17.05;7.95;;;;;;;27.51;49.38;101873.25;5063471;28;20049;-75
2023/06/15 08:23:20;;;;;;;12.02;7.10;;;;;;;26.66;51.09;101870.50;5062687;28;20029;-75
2023/06/15 08:25:52;;;;;;;13.35;7.72;;;;;;;26.89;48.96;101875.16;5067834;28;20032;-76
2023/06/15 08:28:18;;;;;;;18.05;6.70;;;;;;;27.31;46.31;101870.13;5047336;28;20108;-77
2023/06/15 08:30:43;;;;;;;11.85;6.78;;;;;;;27.00;46.63;101875.59;5066861;28;20784;-76
2023/06/15 08:33:10;;;;;;;11.45;7.95;;;;;;;27.36;48.78;101870.44;5067481;28;20123;-75
2023/06/15 08:35:36;;;;;;;9.68;8.20;;;;;;;28.16;48.87;101862.72;5055684;28;20123;-76
2023/06/15 08:38:02;;;;;;;16.25;6.30;;;;;;;27.03;47.70;101880.72;5056726;28;20057;-75
2023/06/15 08:40:28;;;;;;;13.15;7.95;;;;;;;26.79;48.11;101875.38;5069666;28;20040;-82
2023/06/15 08:42:55;;;;;;;13.35;7.40;;;;;;;27.28;46.69;101877.88;5056454;28;20441;-79
2023/06/15 08:45:20;;;;;;;10.93;6.90;;;;;;;27.04;48.37;101876.94;5067932;28;20262;-77
2023/06/15 08:47:46;;;;;;;11.27;7.18;;;;;;;27.40;50.76;101872.81;5025052;28;20483;-76
2023/06/15 08:50:12;;;;;;;11.88;7.07;;;;;;;26.78;48.58;101874.53;5066107;28;20063;-70
2023/06/15 08:52:41;;;;;;;13.50;6.50;;;;;;;27.72;46.04;101869.00;5065658;28;20078;-73
2023/06/15 08:55:10;;;;;;;14.80;6.78;;;;;;;27.16;48.30;101876.56;5064565;28;20033;-74
2023/06/15 08:57:36;;;;;;;12.35;6.43;;;;;;;27.25;49.19;101883.69;5042148;28;20028;-73
2023/06/15 09:00:10;;;;;;;12.02;5.85;;;;;;;26.45;50.10;101873.78;5066868;28;20049;-73
2023/06/15 09:02:46;;;;;;;15.35;6.05;;;;;;;26.75;48.35;101879.50;5045190;28;20173;-72
2023/06/15 09:05:12;;;;;;;12.20;5.50;;;;;;;26.42;49.60;101876.91;5049622;28;20036;-73
2023/06/15 09:07:40;;;;;;;9.50;5.55;;;;;;;26.66;46.22;101875.06;5039327;28;20526;-75
2023/06/15 09:10:15;;;;;;;9.05;5.15;;;;;;;27.09;45.23;101869.06;5059831;28;20043;-74
2023/06/15 09:12:55;;;;;;;9.57;4.60;;;;;;;27.31;45.05;101869.25;5063949;28;20486;-72
2023/06/15 09:15:25;;;;;;;9.75;5.82;;;;;;;27.13;45.13;101871.47;5050455;28;20139;-74
2023/06/15 09:17:56;;;;;;;10.68;5.18;;;;;;;27.09;44.80;101871.81;5058866;28;20037;-75
2023/06/15 09:20:28;;;;;;;7.65;4.80;;;;;;;26.94;44.43;101873.59;5067354;28;20533;-75
2023/06/15 09:23:02;;;;;;;9.82;4.43;;;;;;;27.10;44.09;101858.97;5060317;28;20686;-73
2023/06/15 09:25:30;;;;;;;7.40;4.65;;;;;;;26.90;43.74;101863.16;5063317;28;20043;-76
2023/06/15 09:28:02;;;;;;;8.75;4.70;;;;;;;26.97;45.73;101867.75;5060168;28;20036;-73
2023/06/15 09:30:40;;;;;;;8.52;5.13;;;;;;;26.90;46.97;101858.53;5057782;28;20033;-76
2023/06/15 09:33:16;;;;;;;7.65;4.53;;;;;;;26.73;46.41;101860.53;5049481;28;20029;-74
2023/06/15 09:36:05;;;;;;;9.60;5.15;;;;;;;27.06;44.74;101854.84;5066637;28;20040;-74
2023/06/15 09:38:32;;;;;;;12.70;5.25;;;;;;;26.72;42.89;101850.59;5059553;28;20088;-74
2023/06/15 09:41:05;;;;;;;7.00;4.30;;;;;;;26.94;43.53;101853.56;5070165;28;20047;-74
2023/06/15 09:43:34;;;;;;;11.18;3.85;;;;;;;27.78;44.16;101855.38;5054779;28;20040;-74
2023/06/15 09:46:01;;;;;;;9.40;3.85;;;;;;;27.59;43.29;101850.38;5063403;28;20039;-76
2023/06/15 09:48:30;;;;;;;9.27;4.25;;;;;;;27.35;43.52;101852.28;5057356;28;20080;-73
2023/06/15 09:51:00;;;;;;;6.32;3.60;;;;;;;27.48;42.59;101839.88;5065381;28;20044;-74
2023/06/15 09:53:28;;;;;;;10.10;4.20;;;;;;;27.46;40.56;101845.53;5062015;28;20037;-74
2023/06/15 09:55:55;;;;;;;5.75;4.00;;;;;;;27.28;40.91;101842.25;5058297;28;20036;-74
2023/06/15 09:58:21;;;;;;;6.18;4.10;;;;;;;27.71;42.92;101845.34;5062058;28;20050;-74
2023/06/15 10:00:47;;;;;;;8.00;4.53;;;;;;;27.88;41.93;101841.41;5061156;28;20041;-72
2023/06/15 10:03:18;;;;;;;10.85;4.60;;;;;;;26.98;44.02;101861.25;5068164;28;20147;-73
2023/06/15 10:05:47;;;;;;;7.55;4.20;;;;;;;27.72;42.28;101836.94;5055113;28;20052;-74
2023/06/15 10:08:18;;;;;;;4.78;3.95;;;;;;;27.97;42.26;101843.03;5060963;28;20172;-75
2023/06/15 10:10:45;;;;;;;9.80;4.53;;;;;;;28.41;39.98;101836.72;5057187;28;20083;-73
2023/06/15 10:13:23;;;;;;;10.45;4.30;;;;;;;28.70;39.73;101837.72;5064831;28;20074;-75
2023/06/15 10:15:52;;;;;;;8.57;4.20;;;;;;;29.08;42.00;101833.78;5039129;28;20036;-74
2023/06/15 10:18:22;;;;;;;10.25;5.13;;;;;;;28.71;42.47;101839.44;5063318;28;20021;-74
2023/06/15 10:20:53;;;;;;;5.13;3.75;;;;;;;28.23;39.42;101837.09;5036513;28;20701;-73
2023/06/15 10:23:27;;;;;;;5.33;4.17;;;;;;;27.99;41.03;101834.63;5060841;28;20037;-73
2023/06/15 10:25:57;;;;;;;7.47;4.32;;;;;;;28.36;40.03;101840.03;5071541;28;20867;-73
2023/06/15 10:28:32;;;;;;;6.25;4.25;;;;;;;28.57;39.52;101836.53;5067831;28;20601;-73
2023/06/15 10:31:07;;;;;;;11.93;5.25;;;;;;;28.46;42.80;101839.75;5066073;28;20029;-75
2023/06/15 10:33:43;;;;;;;10.82;4.60;;;;;;;27.95;42.81;101844.25;5061929;28;20306;-73
2023/06/15 10:36:25;;;;;;;6.72;3.90;;;;;;;27.78;41.04;101838.94;5064965;28;21229;-74
2023/06/15 10:39:01;;;;;;;9.55;4.47;;;;;;;28.92;40.43;101834.00;5074056;28;20136;-76
2023/06/15 10:41:27;;;;;;;8.10;4.32;;;;;;;27.86;39.33;101833.38;5050617;28;20037;-73
2023/06/15 10:43:58;;;;;;;10.07;4.30;;;;;;;28.22;39.73;101838.13;5063588;28;20037;-74
2023/06/15 10:46:30;;;;;;;7.28;4.50;;;;;;;28.09;38.73;101835.19;5071511;28;20040;-73
2023/06/15 10:49:05;;;;;;;7.60;4.65;;;;;;;28.98;36.73;101825.00;5073638;28;20033;-73
2023/06/15 10:51:38;;;;;;;10.15;4.18;;;;;;;28.88;36.46;101833.53;5044251;28;20086;-73
2023/06/15 10:54:25;;;;;;;6.93;4.15;;;;;;;28.37;39.32;101832.69;5071210;28;20148;-72
2023/06/15 10:56:55;;;;;;;7.50;3.78;;;;;;;28.53;43.08;101829.72;5072780;28;20064;-75
2023/06/15 10:59:45;;;;;;;6.43;4.25;;;;;;;29.13;39.11;101827.69;5071426;28;20098;-75
2023/06/15 11:02:32;;;;;;;7.00;4.10;;;;;;;28.19;38.54;101830.28;5075603;28;20024;-72
2023/06/15 11:05:00;;;;;;;7.68;3.80;;;;;;;28.38;37.34;101829.72;5065789;28;20036;-73
2023/06/15 11:07:27;;;;;;;9.38;4.05;;;;;;;28.71;38.36;101826.53;5071201;28;20032;-72
2023/06/15 11:09:56;;;;;;;8.43;4.93;;;;;;;28.36;38.72;101831.81;5071397;28;20044;-73
2023/06/15 11:12:35;;;;;;;8.13;4.15;;;;;;;28.84;37.78;101823.13;5069085;28;21116;-75
2023/06/15 11:15:03;;;;;;;6.72;4.60;;;;;;;27.59;39.69;101834.78;5074846;28;20040;-73
2023/06/15 11:17:30;;;;;;;7.75;4.95;;;;;;;27.63;41.73;101827.91;5073158;28;20888;-73
2023/06/15 11:19:56;;;;;;;5.57;4.55;;;;;;;28.91;37.56;101821.28;5071610;28;20036;-74
2023/06/15 11:22:28;;;;;;;8.50;4.10;;;;;;;29.77;38.02;101819.44;5069838;28;20075;-73